Twr-841 — NAVY841 — position and weather

sailwx.info

Track history (hours):
 
Tides and Currents Weather Stations Pressure Air Temp Water Temp Dewpoint Dewpoint Depression Visibility Wind Speed Wind Dir Waves Ship Positions

Twr-841

Last reported at 2015-Aug-28 16:27 UTC. Time now 2015-Aug-30 11:56 UTC.
Position N 41°21' W 071°22'.

Length 39 m.

Type: Military. MMSI: 369970385.

Date/timePositionNaut miles runAvg speedWind from/ knotsBaromVisibWave heightAir tempDewpointWater temp
2015-Aug-28 16:27N 41°21' W 071°22'2 0.8
2015-Aug-28 14:33N 41°20' W 071°24'13 5.3
2015-Aug-28 12:10N 41°32' W 071°19'0 0.0
2015-Aug-28 11:31N 41°32' W 071°19'0 0.0
2015-Aug-28 10:31N 41°32' W 071°19'0 0.0
2015-Aug-28 09:31N 41°32' W 071°19'0 0.0
2015-Aug-28 08:28N 41°32' W 071°19'0 0.0
2015-Aug-28 06:16N 41°32' W 071°19'0 0.0
2015-Aug-27 12:06N 41°32' W 071°19'0 0.0
2015-Aug-27 11:30N 41°32' W 071°19'0 0.0
2015-Aug-27 10:33N 41°32' W 071°19'0 0.0
2015-Aug-27 09:27N 41°32' W 071°19'0 0.0
2015-Aug-27 08:33N 41°32' W 071°19'0 0.0
2015-Aug-27 07:33N 41°32' W 071°19'0 0.0
2015-Aug-27 06:33N 41°32' W 071°19'0 0.0
2015-Aug-27 05:30N 41°32' W 071°19'0 0.0
2015-Aug-27 04:33N 41°32' W 071°19'0 0.0
2015-Aug-27 03:33N 41°32' W 071°19'0 0.0
2015-Aug-27 02:30N 41°32' W 071°19'0 0.0
2015-Aug-27 01:33N 41°32' W 071°19'0 0.0
2015-Aug-27 00:21N 41°32' W 071°19'7 0.9
2015-Aug-26 16:31N 41°26' W 071°23'3 2.6
2015-Aug-26 15:33N 41°24' W 071°23'1 0.8
2015-Aug-26 14:29N 41°23' W 071°23'3 1.5
2015-Aug-26 12:21N 41°26' W 071°22'7 0.4
2015-Aug-25 18:05N 41°32' W 071°19'0 0.0
2015-Aug-25 12:32N 41°32' W 071°19'0 0.0
2015-Aug-25 11:11N 41°32' W 071°19'0 0.0
2015-Aug-25 09:11N 41°32' W 071°19'  
2015-Aug-22 11:30N 41°32' W 071°19'0 0.0
2015-Aug-22 06:33N 41°32' W 071°19'0 0.0
2015-Aug-22 05:18N 41°32' W 071°19'0 0.0
2015-Aug-22 02:24N 41°32' W 071°19'9 0.8
2015-Aug-21 14:25N 41°24' W 071°23'2 2.3
2015-Aug-21 13:23N 41°21' W 071°23'1 1.8
2015-Aug-21 12:33N 41°23' W 071°22'  
2015-Aug-19 05:23N 41°32' W 071°19'0 0.0
2015-Aug-19 04:26N 41°32' W 071°19'0 0.0
2015-Aug-19 03:27N 41°32' W 071°19'0 0.0
2015-Aug-19 02:32N 41°32' W 071°19'0 0.0
2015-Aug-19 01:11N 41°32' W 071°19'0 0.0
2015-Aug-19 00:20N 41°32' W 071°19'0 0.0
2015-Aug-18 23:32N 41°32' W 071°19'0 0.0
2015-Aug-18 22:31N 41°32' W 071°19'0 0.0
2015-Aug-18 21:23N 41°32' W 071°19'0 0.0
2015-Aug-18 20:13N 41°32' W 071°19'  
Track history (hours):
 
Tides and Currents Weather Stations Pressure Air Temp Water Temp Dewpoint Dewpoint Depression Visibility Wind Speed Wind Dir Waves Ship Positions

Twr-841

Last reported at 2015-Aug-28 16:27 UTC. Time now 2015-Aug-30 11:56 UTC.
Position N 41°21' W 071°22'.

Length 39 m.

Type: Military. MMSI: 369970385.

Date/timePositionNaut miles runAvg speedWind from/ knotsBaromVisibWave heightAir tempDewpointWater temp
2015-Aug-28 16:27N 41°21' W 071°22'2 0.8
2015-Aug-28 14:33N 41°20' W 071°24'13 5.3
2015-Aug-28 12:10N 41°32' W 071°19'0 0.0
2015-Aug-28 11:31N 41°32' W 071°19'0 0.0
2015-Aug-28 10:31N 41°32' W 071°19'0 0.0
2015-Aug-28 09:31N 41°32' W 071°19'0 0.0
2015-Aug-28 08:28N 41°32' W 071°19'0 0.0
2015-Aug-28 06:16N 41°32' W 071°19'0 0.0
2015-Aug-27 12:06N 41°32' W 071°19'0 0.0
2015-Aug-27 11:30N 41°32' W 071°19'0 0.0
2015-Aug-27 10:33N 41°32' W 071°19'0 0.0
2015-Aug-27 09:27N 41°32' W 071°19'0 0.0
2015-Aug-27 08:33N 41°32' W 071°19'0 0.0
2015-Aug-27 07:33N 41°32' W 071°19'0 0.0
2015-Aug-27 06:33N 41°32' W 071°19'0 0.0
2015-Aug-27 05:30N 41°32' W 071°19'0 0.0
2015-Aug-27 04:33N 41°32' W 071°19'0 0.0
2015-Aug-27 03:33N 41°32' W 071°19'0 0.0
2015-Aug-27 02:30N 41°32' W 071°19'0 0.0
2015-Aug-27 01:33N 41°32' W 071°19'0 0.0
2015-Aug-27 00:21N 41°32' W 071°19'7 0.9
2015-Aug-26 16:31N 41°26' W 071°23'3 2.6
2015-Aug-26 15:33N 41°24' W 071°23'1 0.8
2015-Aug-26 14:29N 41°23' W 071°23'3 1.5
2015-Aug-26 12:21N 41°26' W 071°22'7 0.4
2015-Aug-25 18:05N 41°32' W 071°19'0 0.0
2015-Aug-25 12:32N 41°32' W 071°19'0 0.0
2015-Aug-25 11:11N 41°32' W 071°19'0 0.0
2015-Aug-25 09:11N 41°32' W 071°19'  
2015-Aug-22 11:30N 41°32' W 071°19'0 0.0
2015-Aug-22 06:33N 41°32' W 071°19'0 0.0
2015-Aug-22 05:18N 41°32' W 071°19'0 0.0
2015-Aug-22 02:24N 41°32' W 071°19'9 0.8
2015-Aug-21 14:25N 41°24' W 071°23'2 2.3
2015-Aug-21 13:23N 41°21' W 071°23'1 1.8
2015-Aug-21 12:33N 41°23' W 071°22'  
2015-Aug-19 05:23N 41°32' W 071°19'0 0.0
2015-Aug-19 04:26N 41°32' W 071°19'0 0.0
2015-Aug-19 03:27N 41°32' W 071°19'0 0.0
2015-Aug-19 02:32N 41°32' W 071°19'0 0.0
2015-Aug-19 01:11N 41°32' W 071°19'0 0.0
2015-Aug-19 00:20N 41°32' W 071°19'0 0.0
2015-Aug-18 23:32N 41°32' W 071°19'0 0.0
2015-Aug-18 22:31N 41°32' W 071°19'0 0.0
2015-Aug-18 21:23N 41°32' W 071°19'0 0.0
2015-Aug-18 20:13N 41°32' W 071°19'  

Dump ship's entire track history